RYR5195 EHRD-EGKK
Flight info
| Callsign | RYR5195 |
|---|---|
| Flight time | 0h 47m |
| Altitude | 24000 |
| Route | ABNED Z344 AMRIV Q63 ARREK Y4 TEBRA |
| Aircraft | B738/M-SDE2E3FGHIRWXY/LB1 |
Departure
| Time | 2026-05-04 18:19 |
|---|---|
| Airport | Rotterdam The Hague Airport (EHRD) |
Arrival
| Time | 2026-05-04 19:07 |
|---|---|
| Airport | London Gatwick Airport (EGKK) |
| Time | Latitude | Longitude | Altitude | Speed | Heading |
|---|---|---|---|---|---|
| 2026-05-04 17:55 | 51.95163 | 4.43350 | -6 ft | 0 kts | 327° |
| 2026-05-04 18:17 | 51.95192 | 4.43319 | -6 ft | 5 kts | 322° |
| 2026-05-04 18:17 | 51.95191 | 4.43272 | -6 ft | 5 kts | 237° |
| 2026-05-04 18:17 | 51.95153 | 4.43154 | -6 ft | 10 kts | 270° |
| 2026-05-04 18:18 | 51.95203 | 4.43097 | -6 ft | 10 kts | 359° |
| 2026-05-04 18:18 | 51.95270 | 4.43097 | -6 ft | 9 kts | 1° |
| 2026-05-04 18:18 | 51.95338 | 4.43147 | -6 ft | 25 kts | 48° |
| 2026-05-04 18:18 | 51.95488 | 4.43522 | -6 ft | 91 kts | 57° |
| 2026-05-04 18:19 | 51.96717 | 4.46431 | 831 ft | 185 kts | 50° |
| 2026-05-04 18:19 | 51.97572 | 4.47991 | 2159 ft | 185 kts | 33° |
| 2026-05-04 18:19 | 51.98824 | 4.48752 | 2537 ft | 212 kts | 11° |
| 2026-05-04 18:20 | 52.00462 | 4.48950 | 2337 ft | 265 kts | 360° |
| 2026-05-04 18:20 | 52.02513 | 4.48700 | 1898 ft | 323 kts | 354° |
| 2026-05-04 18:20 | 52.04771 | 4.48045 | 2808 ft | 324 kts | 348° |
| 2026-05-04 18:20 | 52.06790 | 4.47191 | 5032 ft | 275 kts | 344° |
| 2026-05-04 18:21 | 52.08557 | 4.46922 | 6988 ft | 242 kts | 13° |
| 2026-05-04 18:21 | 52.09952 | 4.48196 | 8241 ft | 230 kts | 49° |
| 2026-05-04 18:21 | 52.10626 | 4.50590 | 8769 ft | 246 kts | 87° |
| 2026-05-04 18:21 | 52.10213 | 4.53281 | 9397 ft | 252 kts | 126° |
| 2026-05-04 18:22 | 52.08860 | 4.55028 | 10108 ft | 253 kts | 163° |
| 2026-05-04 18:22 | 52.07118 | 4.55166 | 10809 ft | 254 kts | 193° |
| 2026-05-04 18:22 | 52.05437 | 4.54237 | 11515 ft | 258 kts | 208° |
| 2026-05-04 18:22 | 52.03992 | 4.52530 | 12250 ft | 259 kts | 232° |
| 2026-05-04 18:23 | 52.03303 | 4.49876 | 12951 ft | 260 kts | 268° |
| 2026-05-04 18:23 | 52.03445 | 4.46939 | 13667 ft | 263 kts | 270° |
| 2026-05-04 18:23 | 52.02977 | 4.44081 | 14337 ft | 267 kts | 236° |
| 2026-05-04 18:23 | 52.01624 | 4.42001 | 14993 ft | 272 kts | 214° |
| 2026-05-04 18:24 | 52.00047 | 4.40304 | 15733 ft | 273 kts | 216° |
| 2026-05-04 18:24 | 51.98475 | 4.38543 | 16409 ft | 276 kts | 217° |
| 2026-05-04 18:24 | 51.96976 | 4.36601 | 17121 ft | 276 kts | 233° |
| 2026-05-04 18:24 | 51.96146 | 4.33795 | 17608 ft | 286 kts | 258° |
| 2026-05-04 18:25 | 51.95825 | 4.30494 | 17787 ft | 308 kts | 262° |
| 2026-05-04 18:25 | 51.95548 | 4.26930 | 17959 ft | 329 kts | 263° |
| 2026-05-04 18:25 | 51.95257 | 4.23135 | 18129 ft | 350 kts | 263° |
| 2026-05-04 18:25 | 51.94936 | 4.19116 | 18284 ft | 369 kts | 262° |
| 2026-05-04 18:26 | 51.94583 | 4.14884 | 18427 ft | 387 kts | 262° |
| 2026-05-04 18:26 | 51.94208 | 4.10495 | 18794 ft | 397 kts | 262° |
| 2026-05-04 18:26 | 51.93815 | 4.06058 | 19373 ft | 399 kts | 261° |
| 2026-05-04 18:26 | 51.93391 | 4.01612 | 20071 ft | 399 kts | 261° |
| 2026-05-04 18:27 | 51.92955 | 3.97171 | 20746 ft | 399 kts | 260° |
| 2026-05-04 18:27 | 51.92514 | 3.92710 | 21290 ft | 402 kts | 260° |
| 2026-05-04 18:27 | 51.92072 | 3.88240 | 21973 ft | 402 kts | 261° |
| 2026-05-04 18:27 | 51.91630 | 3.83772 | 22665 ft | 402 kts | 261° |
| 2026-05-04 18:28 | 51.91189 | 3.79300 | 23196 ft | 405 kts | 261° |
| 2026-05-04 18:28 | 51.90737 | 3.74737 | 23430 ft | 415 kts | 261° |
| 2026-05-04 18:28 | 51.90277 | 3.70102 | 23805 ft | 419 kts | 260° |
| 2026-05-04 18:28 | 51.89815 | 3.65460 | 23965 ft | 415 kts | 260° |
| 2026-05-04 18:29 | 51.89355 | 3.60858 | 23989 ft | 414 kts | 260° |
| 2026-05-04 18:29 | 51.88892 | 3.56240 | 23999 ft | 418 kts | 260° |
| 2026-05-04 18:29 | 51.88423 | 3.51590 | 24002 ft | 419 kts | 260° |
| 2026-05-04 18:29 | 51.87954 | 3.46954 | 24003 ft | 417 kts | 260° |
| 2026-05-04 18:30 | 51.87013 | 3.37704 | 24007 ft | 415 kts | 260° |
| 2026-05-04 18:30 | 51.86542 | 3.33106 | 24004 ft | 415 kts | 260° |
| 2026-05-04 18:30 | 51.86070 | 3.28506 | 24023 ft | 415 kts | 260° |
| 2026-05-04 18:31 | 51.85594 | 3.23889 | 24016 ft | 415 kts | 259° |
| 2026-05-04 18:31 | 51.85115 | 3.19287 | 24013 ft | 415 kts | 259° |
| 2026-05-04 18:31 | 51.84297 | 3.14826 | 23995 ft | 416 kts | 244° |
| 2026-05-04 18:31 | 51.82963 | 3.10751 | 24016 ft | 416 kts | 242° |
| 2026-05-04 18:32 | 51.81610 | 3.06623 | 24015 ft | 416 kts | 242° |
| 2026-05-04 18:32 | 51.80273 | 3.02475 | 24010 ft | 417 kts | 243° |
| 2026-05-04 18:32 | 51.78947 | 2.98314 | 24010 ft | 417 kts | 243° |
| 2026-05-04 18:32 | 51.77625 | 2.94141 | 24013 ft | 417 kts | 243° |
| 2026-05-04 18:33 | 51.76308 | 2.89981 | 24006 ft | 417 kts | 243° |
| 2026-05-04 18:33 | 51.74987 | 2.85809 | 24006 ft | 417 kts | 243° |
| 2026-05-04 18:33 | 51.73666 | 2.81646 | 24012 ft | 417 kts | 243° |
| 2026-05-04 18:33 | 51.72343 | 2.77484 | 24006 ft | 417 kts | 243° |
| 2026-05-04 18:34 | 51.71017 | 2.73326 | 24010 ft | 417 kts | 242° |
| 2026-05-04 18:34 | 51.69716 | 2.69151 | 24009 ft | 417 kts | 246° |
| 2026-05-04 18:34 | 51.68746 | 2.64757 | 24005 ft | 417 kts | 255° |
| 2026-05-04 18:34 | 51.68227 | 2.60159 | 24012 ft | 418 kts | 262° |
| 2026-05-04 18:35 | 51.67862 | 2.55513 | 24011 ft | 418 kts | 262° |
| 2026-05-04 18:35 | 51.67475 | 2.50868 | 24009 ft | 418 kts | 261° |
| 2026-05-04 18:35 | 51.67063 | 2.46243 | 24004 ft | 418 kts | 261° |
| 2026-05-04 18:35 | 51.66631 | 2.41616 | 24004 ft | 418 kts | 260° |
| 2026-05-04 18:36 | 51.66191 | 2.36979 | 24012 ft | 419 kts | 260° |
| 2026-05-04 18:36 | 51.65751 | 2.32344 | 24011 ft | 419 kts | 260° |
| 2026-05-04 18:36 | 51.65311 | 2.27709 | 24007 ft | 419 kts | 260° |
| 2026-05-04 18:36 | 51.64872 | 2.23087 | 23996 ft | 414 kts | 260° |
| 2026-05-04 18:37 | 51.64446 | 2.18584 | 23871 ft | 401 kts | 260° |
| 2026-05-04 18:37 | 51.64025 | 2.14183 | 23547 ft | 393 kts | 260° |
| 2026-05-04 18:37 | 51.63612 | 2.09859 | 23066 ft | 389 kts | 260° |
| 2026-05-04 18:37 | 51.63223 | 2.05585 | 22651 ft | 383 kts | 261° |
| 2026-05-04 18:38 | 51.62844 | 2.01351 | 22157 ft | 380 kts | 260° |
| 2026-05-04 18:38 | 51.62468 | 1.97168 | 21708 ft | 376 kts | 261° |
| 2026-05-04 18:38 | 51.62089 | 1.93024 | 21230 ft | 373 kts | 260° |
| 2026-05-04 18:38 | 51.61704 | 1.88916 | 20759 ft | 370 kts | 258° |
| 2026-05-04 18:39 | 51.61025 | 1.84959 | 20287 ft | 366 kts | 246° |
| 2026-05-04 18:39 | 51.59864 | 1.81345 | 19847 ft | 362 kts | 237° |
| 2026-05-04 18:39 | 51.58323 | 1.78158 | 19388 ft | 360 kts | 228° |
| 2026-05-04 18:39 | 51.56653 | 1.75175 | 18941 ft | 358 kts | 227° |
| 2026-05-04 18:40 | 51.54986 | 1.72214 | 18497 ft | 357 kts | 227° |
| 2026-05-04 18:40 | 51.53331 | 1.69243 | 18030 ft | 356 kts | 228° |
| 2026-05-04 18:40 | 51.51712 | 1.66312 | 17556 ft | 355 kts | 228° |
| 2026-05-04 18:40 | 51.50079 | 1.63349 | 17094 ft | 353 kts | 228° |
| 2026-05-04 18:41 | 51.48613 | 1.60203 | 16623 ft | 352 kts | 243° |
| 2026-05-04 18:41 | 51.47735 | 1.56553 | 16225 ft | 350 kts | 251° |
| 2026-05-04 18:41 | 51.46941 | 1.52873 | 15786 ft | 349 kts | 251° |
| 2026-05-04 18:41 | 51.46134 | 1.49216 | 15357 ft | 347 kts | 250° |
| 2026-05-04 18:42 | 51.45308 | 1.45577 | 14916 ft | 347 kts | 250° |
| 2026-05-04 18:42 | 51.44475 | 1.41962 | 14512 ft | 345 kts | 250° |
| 2026-05-04 18:42 | 51.43552 | 1.38429 | 14088 ft | 344 kts | 239° |
| 2026-05-04 18:42 | 51.41974 | 1.35600 | 13910 ft | 338 kts | 220° |
| 2026-05-04 18:43 | 51.40122 | 1.33285 | 13717 ft | 341 kts | 217° |
| 2026-05-04 18:43 | 51.38168 | 1.31014 | 13525 ft | 352 kts | 216° |
| 2026-05-04 18:43 | 51.36262 | 1.28559 | 13259 ft | 352 kts | 226° |
| 2026-05-04 18:43 | 51.34777 | 1.25503 | 13025 ft | 346 kts | 238° |
| 2026-05-04 18:44 | 51.33513 | 1.22297 | 12847 ft | 346 kts | 238° |
| 2026-05-04 18:44 | 51.32651 | 1.20085 | 12717 ft | 349 kts | 238° |
| 2026-05-04 18:44 | 51.30938 | 1.15702 | 12449 ft | 351 kts | 238° |
| 2026-05-04 18:44 | 51.29644 | 1.12417 | 12252 ft | 347 kts | 237° |
| 2026-05-04 18:45 | 51.28356 | 1.09172 | 12054 ft | 344 kts | 237° |
| 2026-05-04 18:45 | 51.27073 | 1.05955 | 11858 ft | 342 kts | 237° |
| 2026-05-04 18:45 | 51.25795 | 1.02762 | 11674 ft | 341 kts | 237° |
| 2026-05-04 18:45 | 51.24518 | 0.99583 | 11478 ft | 340 kts | 237° |
| 2026-05-04 18:46 | 51.23242 | 0.96412 | 11306 ft | 339 kts | 237° |
| 2026-05-04 18:46 | 51.21966 | 0.93246 | 11110 ft | 339 kts | 237° |
| 2026-05-04 18:46 | 51.20695 | 0.90096 | 10910 ft | 334 kts | 237° |
| 2026-05-04 18:46 | 51.19455 | 0.87028 | 10715 ft | 325 kts | 237° |
| 2026-05-04 18:47 | 51.18261 | 0.84077 | 10535 ft | 317 kts | 237° |
| 2026-05-04 18:47 | 51.17081 | 0.81166 | 10355 ft | 309 kts | 236° |
| 2026-05-04 18:47 | 51.15929 | 0.78325 | 10183 ft | 301 kts | 236° |
| 2026-05-04 18:47 | 51.14804 | 0.75553 | 10017 ft | 294 kts | 236° |
| 2026-05-04 18:48 | 51.13714 | 0.72871 | 9975 ft | 283 kts | 236° |
| 2026-05-04 18:48 | 51.12651 | 0.70260 | 9717 ft | 280 kts | 237° |
| 2026-05-04 18:48 | 51.11603 | 0.67688 | 9546 ft | 274 kts | 236° |
| 2026-05-04 18:48 | 51.10576 | 0.65168 | 9371 ft | 270 kts | 236° |
| 2026-05-04 18:49 | 51.09559 | 0.62676 | 9219 ft | 269 kts | 236° |
| 2026-05-04 18:49 | 51.08539 | 0.60180 | 9083 ft | 269 kts | 236° |
| 2026-05-04 18:49 | 51.07517 | 0.57681 | 9007 ft | 271 kts | 237° |
| 2026-05-04 18:49 | 51.06489 | 0.55170 | 9003 ft | 270 kts | 236° |
| 2026-05-04 18:50 | 51.05481 | 0.52708 | 8984 ft | 260 kts | 237° |
| 2026-05-04 18:50 | 51.04517 | 0.50354 | 8951 ft | 248 kts | 236° |
| 2026-05-04 18:50 | 51.03593 | 0.48103 | 8629 ft | 250 kts | 236° |
| 2026-05-04 18:50 | 51.02613 | 0.45719 | 8201 ft | 260 kts | 236° |
| 2026-05-04 18:51 | 51.01622 | 0.43307 | 8091 ft | 261 kts | 237° |
| 2026-05-04 18:51 | 51.00623 | 0.40879 | 8020 ft | 264 kts | 237° |
| 2026-05-04 18:51 | 50.99623 | 0.38451 | 7995 ft | 261 kts | 237° |
| 2026-05-04 18:51 | 50.98650 | 0.36084 | 7979 ft | 250 kts | 238° |
| 2026-05-04 18:52 | 50.98070 | 0.33586 | 7982 ft | 237 kts | 265° |
| 2026-05-04 18:52 | 50.98031 | 0.31037 | 7988 ft | 228 kts | 270° |
| 2026-05-04 18:52 | 50.98058 | 0.28537 | 7991 ft | 225 kts | 271° |
| 2026-05-04 18:52 | 50.98093 | 0.26109 | 8017 ft | 214 kts | 271° |
| 2026-05-04 18:53 | 50.98131 | 0.23799 | 8005 ft | 206 kts | 271° |
| 2026-05-04 18:53 | 50.98168 | 0.21532 | 8012 ft | 206 kts | 271° |
| 2026-05-04 18:53 | 50.98204 | 0.19305 | 7926 ft | 204 kts | 271° |
| 2026-05-04 18:53 | 50.98241 | 0.17050 | 7588 ft | 208 kts | 271° |
| 2026-05-04 18:54 | 50.98276 | 0.14723 | 7148 ft | 213 kts | 271° |
| 2026-05-04 18:54 | 50.98308 | 0.12347 | 6719 ft | 217 kts | 271° |
| 2026-05-04 18:54 | 50.98337 | 0.09929 | 6282 ft | 221 kts | 271° |
| 2026-05-04 18:54 | 50.98360 | 0.07473 | 5823 ft | 224 kts | 271° |
| 2026-05-04 18:55 | 50.98377 | 0.04985 | 5373 ft | 227 kts | 271° |
| 2026-05-04 18:55 | 50.98374 | -0.00073 | 4451 ft | 229 kts | 271° |
| 2026-05-04 18:55 | 50.98357 | -0.02580 | 4052 ft | 223 kts | 270° |
| 2026-05-04 18:56 | 50.98347 | -0.04926 | 3991 ft | 203 kts | 271° |
| 2026-05-04 18:56 | 50.98492 | -0.07091 | 3971 ft | 194 kts | 287° |
| 2026-05-04 18:56 | 50.98838 | -0.09142 | 3721 ft | 191 kts | 286° |
| 2026-05-04 18:56 | 50.99169 | -0.11204 | 3273 ft | 194 kts | 286° |
| 2026-05-04 18:57 | 50.99491 | -0.13283 | 3041 ft | 194 kts | 286° |
| 2026-05-04 18:57 | 50.99802 | -0.15348 | 3014 ft | 197 kts | 285° |
| 2026-05-04 18:57 | 51.00125 | -0.17480 | 3009 ft | 199 kts | 285° |
| 2026-05-04 18:57 | 51.00449 | -0.19604 | 2994 ft | 197 kts | 285° |
| 2026-05-04 18:58 | 51.00771 | -0.21707 | 3000 ft | 196 kts | 285° |
| 2026-05-04 18:58 | 51.01095 | -0.23820 | 3003 ft | 197 kts | 285° |
| 2026-05-04 18:58 | 51.01424 | -0.25947 | 3025 ft | 198 kts | 285° |
| 2026-05-04 18:58 | 51.01756 | -0.28050 | 3036 ft | 199 kts | 286° |
| 2026-05-04 18:59 | 51.02088 | -0.30201 | 3003 ft | 201 kts | 286° |
| 2026-05-04 18:59 | 51.02416 | -0.32352 | 3005 ft | 201 kts | 285° |
| 2026-05-04 18:59 | 51.02750 | -0.34512 | 2997 ft | 201 kts | 286° |
| 2026-05-04 18:59 | 51.03077 | -0.36650 | 3005 ft | 199 kts | 286° |
| 2026-05-04 19:00 | 51.03400 | -0.38778 | 2997 ft | 198 kts | 285° |
| 2026-05-04 19:00 | 51.03723 | -0.40899 | 3000 ft | 197 kts | 286° |
| 2026-05-04 19:00 | 51.04035 | -0.42982 | 2999 ft | 196 kts | 286° |
| 2026-05-04 19:00 | 51.04349 | -0.45088 | 3004 ft | 196 kts | 286° |
| 2026-05-04 19:01 | 51.04670 | -0.47190 | 3007 ft | 195 kts | 289° |
| 2026-05-04 19:01 | 51.05373 | -0.48948 | 3002 ft | 187 kts | 327° |
| 2026-05-04 19:01 | 51.06565 | -0.49550 | 3003 ft | 180 kts | 6° |
| 2026-05-04 19:01 | 51.07684 | -0.48773 | 3032 ft | 180 kts | 41° |
| 2026-05-04 19:02 | 51.08601 | -0.47359 | 3005 ft | 185 kts | 45° |
| 2026-05-04 19:02 | 51.09493 | -0.45918 | 2997 ft | 178 kts | 45° |
| 2026-05-04 19:02 | 51.10337 | -0.44546 | 2991 ft | 170 kts | 46° |
| 2026-05-04 19:02 | 51.11165 | -0.43186 | 2992 ft | 171 kts | 49° |
| 2026-05-04 19:03 | 51.11683 | -0.41492 | 2854 ft | 172 kts | 75° |
| 2026-05-04 19:03 | 51.11972 | -0.39687 | 2639 ft | 161 kts | 74° |
| 2026-05-04 19:03 | 51.12218 | -0.38017 | 2416 ft | 153 kts | 75° |
| 2026-05-04 19:03 | 51.12448 | -0.36362 | 2206 ft | 154 kts | 76° |
| 2026-05-04 19:04 | 51.12677 | -0.34682 | 1997 ft | 156 kts | 76° |
| 2026-05-04 19:04 | 51.12899 | -0.33038 | 1736 ft | 150 kts | 76° |
| 2026-05-04 19:04 | 51.13093 | -0.31431 | 1550 ft | 145 kts | 76° |
| 2026-05-04 19:04 | 51.13306 | -0.29860 | 1370 ft | 142 kts | 76° |
| 2026-05-04 19:05 | 51.13541 | -0.28315 | 1268 ft | 147 kts | 76° |
| 2026-05-04 19:05 | 51.13767 | -0.26711 | 1029 ft | 150 kts | 76° |
| 2026-05-04 19:05 | 51.13983 | -0.25098 | 769 ft | 147 kts | 77° |
| 2026-05-04 19:05 | 51.14197 | -0.23532 | 558 ft | 142 kts | 77° |
| 2026-05-04 19:06 | 51.14404 | -0.22031 | 364 ft | 136 kts | 77° |
| 2026-05-04 19:06 | 51.14600 | -0.20607 | 218 ft | 127 kts | 77° |
| 2026-05-04 19:06 | 51.14760 | -0.19433 | 209 ft | 88 kts | 78° |
| 2026-05-04 19:06 | 51.14864 | -0.18676 | 201 ft | 53 kts | 77° |
| 2026-05-04 19:07 | 51.14927 | -0.18214 | 203 ft | 32 kts | 77° |
| 2026-05-04 19:07 | 51.14983 | -0.17956 | 206 ft | 13 kts | 56° |
| 2026-05-04 19:07 | 51.15035 | -0.17840 | 215 ft | 13 kts | 52° |
| 2026-05-04 19:07 | 51.15082 | -0.17766 | 207 ft | 7 kts | 25° |
| 2026-05-04 19:08 | 51.15135 | -0.17760 | 204 ft | 9 kts | 355° |
| 2026-05-04 19:08 | 51.15202 | -0.17773 | 213 ft | 5 kts | 351° |
| 2026-05-04 19:08 | 51.15219 | -0.17777 | 204 ft | 0 kts | 351° |
| 2026-05-04 19:08 | 51.15223 | -0.17778 | 204 ft | 1 kts | 349° |
| 2026-05-04 19:09 | 51.15226 | -0.17779 | 204 ft | 0 kts | 349° |
| 2026-05-04 19:10 | 51.15228 | -0.17780 | 204 ft | 1 kts | 349° |
| 2026-05-04 19:10 | 51.15248 | -0.17768 | 209 ft | 7 kts | 36° |
| 2026-05-04 19:10 | 51.15273 | -0.17677 | 205 ft | 10 kts | 72° |
| 2026-05-04 19:10 | 51.15284 | -0.17568 | 203 ft | 10 kts | 79° |
| 2026-05-04 19:11 | 51.15297 | -0.17458 | 203 ft | 11 kts | 81° |
| 2026-05-04 19:11 | 51.15308 | -0.17329 | 203 ft | 12 kts | 83° |
| 2026-05-04 19:11 | 51.15322 | -0.17200 | 207 ft | 12 kts | 77° |
| 2026-05-04 19:11 | 51.15340 | -0.17076 | 203 ft | 11 kts | 77° |
| 2026-05-04 19:12 | 51.15357 | -0.16956 | 203 ft | 11 kts | 78° |
| 2026-05-04 19:12 | 51.15387 | -0.16742 | 204 ft | 8 kts | 66° |
| 2026-05-04 19:12 | 51.15436 | -0.16738 | 203 ft | 8 kts | 321° |
| 2026-05-04 19:13 | 51.15481 | -0.16770 | 207 ft | 6 kts | 347° |
| 2026-05-04 19:13 | 51.15507 | -0.16779 | 203 ft | 0 kts | 348° |